Terminal Aerodrome Forecast
Issued by NWS

Home | Current Version | Previous Version | Text Only | Print | Product List | Glossary On
Versions: 1 2 3 4 5 6 7 8 9 10 11 12 13 14 15 16 17 18 19 20 21 22 23 24 25 26 27 28 29 30 31 32 33 34 35 36 37
000
FTUS42 KJAX 261100
TAFCRG
TAF
KCRG 261121Z 2612/2712 32014G22KT 6SM -RA BR SCT007 OVC012
      TEMPO 2612/2614 3SM -RA BR OVC007
     FM261500 32012G20KT P6SM VCSH SCT012 BKN020
     FM261900 30010G18KT P6SM SCT025 SCT250
     FM262300 28007KT P6SM SKC=

USA.gov is the U.S. government's official web portal to all federal, state and local government web resources and services.